Time;durP1;ratioP1;P1;durP2;ratioP2;P2;SDS_P1;SDS_P2;PMS_P1;PMS_P2;Temp;Humidity;BMP_temperature;BMP_pressure;BME280_temperature;BME280_humidity;BME280_pressure;Samples;Min_cycle;Max_cycle;Signal;HPM_P1;HPM_P2
2021/12/12 00:00:34;;;;;;;16.75;10.35;;;;;;;4.63;100.00;101862.98;1655802;85;22263;-67
2021/12/12 00:03:15;;;;;;;17.52;10.18;;;;;;;4.66;100.00;101867.23;1671789;85;21042;-67
2021/12/12 00:05:46;;;;;;;17.02;11.03;;;;;;;4.63;100.00;101874.47;1660381;84;21552;-67
2021/12/12 00:08:17;;;;;;;18.40;11.28;;;;;;;4.60;100.00;101870.62;1663046;85;21135;-67
2021/12/12 00:10:48;;;;;;;17.62;11.35;;;;;;;4.64;100.00;101868.50;1662635;85;21643;-67
2021/12/12 00:13:21;;;;;;;21.37;12.60;;;;;;;4.62;100.00;101871.47;1660752;85;21086;-67
2021/12/12 00:15:48;;;;;;;18.77;11.85;;;;;;;4.54;100.00;101867.66;1674011;84;21103;-68
2021/12/12 00:18:16;;;;;;;18.27;10.80;;;;;;;4.48;100.00;101875.28;1673831;85;21014;-68
2021/12/12 00:20:46;;;;;;;20.92;12.93;;;;;;;4.49;100.00;101871.88;1673887;85;21101;-67
2021/12/12 00:23:13;;;;;;;16.35;11.03;;;;;;;4.46;100.00;101859.53;1674592;85;21480;-67
2021/12/12 00:25:45;;;;;;;17.45;10.30;;;;;;;4.41;100.00;101869.30;1674661;85;21015;-67
2021/12/12 00:28:15;;;;;;;16.12;10.32;;;;;;;4.43;100.00;101875.67;1674025;85;21591;-66
2021/12/12 00:30:48;;;;;;;16.57;10.72;;;;;;;4.51;100.00;101879.53;1674015;85;21038;-66
2021/12/12 00:33:16;;;;;;;17.90;10.75;;;;;;;4.49;100.00;101868.05;1674594;85;21085;-67
2021/12/12 00:35:43;;;;;;;16.77;10.75;;;;;;;4.45;100.00;101871.44;1674505;85;21503;-67
2021/12/12 00:38:18;;;;;;;18.57;10.98;;;;;;;4.51;100.00;101878.27;1674196;85;21023;-67
2021/12/12 00:40:50;;;;;;;16.87;11.95;;;;;;;4.55;100.00;101876.14;1658409;85;28504;-67
2021/12/12 00:43:29;;;;;;;16.50;11.05;;;;;;;4.61;100.00;101872.34;1674936;85;21110;-66
2021/12/12 00:46:00;;;;;;;16.02;10.82;;;;;;;4.62;100.00;101871.47;1675077;85;21118;-66
2021/12/12 00:48:30;;;;;;;17.32;11.15;;;;;;;4.55;100.00;101876.98;1674901;84;21607;-66
2021/12/12 00:51:00;;;;;;;18.12;10.72;;;;;;;4.57;100.00;101880.39;1675814;85;21050;-67
2021/12/12 00:53:27;;;;;;;16.77;10.43;;;;;;;4.51;100.00;101879.11;1674777;85;21066;-67
2021/12/12 00:55:55;;;;;;;19.10;10.80;;;;;;;4.54;100.00;101871.48;1674978;85;21036;-66
2021/12/12 00:58:24;;;;;;;16.27;9.98;;;;;;;4.57;100.00;101860.00;1646719;85;21098;-67
2021/12/12 01:00:56;;;;;;;19.37;11.20;;;;;;;4.61;100.00;101865.96;1674744;85;21046;-67
2021/12/12 01:03:28;;;;;;;19.55;11.33;;;;;;;4.65;100.00;101868.95;1674610;85;21067;-67
2021/12/12 01:05:58;;;;;;;19.57;11.97;;;;;;;4.68;100.00;101870.21;1675465;85;21062;-67
2021/12/12 01:08:28;;;;;;;21.20;12.15;;;;;;;4.67;100.00;101874.90;1674185;85;21145;-66
2021/12/12 01:11:03;;;;;;;19.45;11.80;;;;;;;4.66;100.00;101874.45;1674760;85;21093;-67
2021/12/12 01:13:31;;;;;;;18.87;10.90;;;;;;;4.66;100.00;101890.19;1674464;84;21094;-67
2021/12/12 01:16:09;;;;;;;17.23;10.60;;;;;;;4.70;100.00;101885.53;1673875;84;21065;-67
2021/12/12 01:18:40;;;;;;;17.60;10.38;;;;;;;4.69;100.00;101893.61;1674901;84;21030;-67
2021/12/12 01:21:15;;;;;;;21.00;11.75;;;;;;;4.68;100.00;101897.42;1674810;85;21598;-67
2021/12/12 01:23:55;;;;;;;19.52;10.78;;;;;;;4.70;100.00;101896.58;1673994;85;21110;-67
2021/12/12 01:26:28;;;;;;;18.05;10.82;;;;;;;4.70;100.00;101891.91;1675330;84;21141;-67
2021/12/12 01:28:56;;;;;;;17.62;10.58;;;;;;;4.63;100.00;101897.85;1673656;85;21129;-67
2021/12/12 01:31:30;;;;;;;18.70;11.22;;;;;;;4.67;100.00;101891.48;1675444;84;21094;-67
2021/12/12 01:34:09;;;;;;;18.73;11.28;;;;;;;4.68;100.00;101885.52;1674746;85;21127;-67
2021/12/12 01:36:46;;;;;;;22.02;12.07;;;;;;;4.63;100.00;101883.83;1674526;85;21066;-67
2021/12/12 01:39:00;;;;;;;17.27;10.68;;;;;;;4.49;100.00;101876.12;1673094;84;21102;-67
2021/12/12 01:41:32;;;;;;;19.77;10.88;;;;;;;4.36;100.00;101870.11;1674700;85;21067;-67
2021/12/12 01:44:11;;;;;;;19.70;10.28;;;;;;;4.41;100.00;101865.90;1675789;85;21050;-66
2021/12/12 01:46:46;;;;;;;18.35;11.15;;;;;;;4.35;100.00;101862.90;1674200;84;21641;-67
2021/12/12 01:49:21;;;;;;;21.12;10.90;;;;;;;4.35;100.00;101853.98;1675077;85;21046;-66
2021/12/12 01:51:50;;;;;;;20.72;12.43;;;;;;;4.27;100.00;101858.62;1674944;85;21574;-66
2021/12/12 01:54:22;;;;;;;22.42;12.98;;;;;;;4.28;100.00;101859.04;1674781;85;21039;-66
2021/12/12 01:56:55;;;;;;;22.82;11.95;;;;;;;4.26;100.00;101865.44;1674178;85;21617;-67
2021/12/12 01:59:26;;;;;;;20.08;12.10;;;;;;;4.18;100.00;101858.18;1675465;85;21518;-67
2021/12/12 02:02:07;;;;;;;21.80;12.20;;;;;;;4.18;100.00;101864.12;1674387;85;21086;-66
2021/12/12 02:04:42;;;;;;;23.00;12.15;;;;;;;4.18;100.00;101878.14;1673474;85;21058;-66
2021/12/12 02:07:12;;;;;;;22.35;11.93;;;;;;;4.18;100.00;101887.06;1674950;85;21114;-67
2021/12/12 02:09:41;;;;;;;24.05;12.50;;;;;;;4.23;100.00;101886.22;1673925;85;21082;-67
2021/12/12 02:12:11;;;;;;;20.17;11.05;;;;;;;4.28;100.00;101883.26;1673922;84;21118;-67
2021/12/12 02:14:41;;;;;;;20.90;12.73;;;;;;;4.12;100.00;101886.19;1675425;85;21055;-67
2021/12/12 02:17:21;;;;;;;22.65;11.73;;;;;;;4.12;100.00;101881.94;1674220;84;21181;-67
2021/12/12 02:20:36;;;;;;;24.80;13.18;;;;;;;4.10;100.00;101878.53;1673911;85;21559;-66
2021/12/12 02:22:41;;;;;;;21.07;11.63;;;;;;;4.08;100.00;101873.84;1661623;85;21066;-67
2021/12/12 02:35:53;;;;;;;22.13;12.18;;;;;;;3.98;100.00;101850.44;1673584;86;21086;-66
2021/12/12 02:38:24;;;;;;;20.72;11.35;;;;;;;3.93;100.00;101843.19;1673919;85;21059;-67
2021/12/12 02:40:59;;;;;;;21.42;11.85;;;;;;;3.93;100.00;101844.45;1674532;85;21544;-66
2021/12/12 02:43:32;;;;;;;19.77;11.30;;;;;;;3.84;100.00;101839.33;1674406;85;21082;-67
2021/12/12 02:45:58;;;;;;;23.62;11.95;;;;;;;3.85;100.00;101836.77;1674006;85;21109;-67
2021/12/12 02:48:37;;;;;;;21.73;12.15;;;;;;;3.91;100.00;101833.41;1675615;84;21066;-67
2021/12/12 02:51:09;;;;;;;19.67;11.33;;;;;;;3.93;100.00;101845.30;1674872;85;21550;-67
2021/12/12 02:53:47;;;;;;;19.20;11.28;;;;;;;3.92;100.00;101855.51;1675119;85;21079;-66
2021/12/12 02:56:19;;;;;;;20.92;11.40;;;;;;;3.89;100.00;101863.96;1674747;85;21527;-66
2021/12/12 02:58:47;;;;;;;22.60;11.93;;;;;;;3.90;100.00;101870.77;1674164;85;21090;-67
2021/12/12 03:01:32;;;;;;;19.98;11.63;;;;;;;3.94;100.00;101866.12;1673879;85;21094;-67
2021/12/12 03:03:59;;;;;;;17.48;10.35;;;;;;;3.82;100.00;101863.52;1675018;85;21113;-67
2021/12/12 03:06:30;;;;;;;19.92;12.18;;;;;;;3.74;100.00;101857.09;1673622;86;21058;-67
2021/12/12 03:09:12;;;;;;;20.95;11.80;;;;;;;3.66;100.00;101848.98;1673727;84;21090;-67
2021/12/12 03:11:40;;;;;;;17.45;9.78;;;;;;;3.70;100.00;101846.89;1674772;85;21125;-67
2021/12/12 03:14:07;;;;;;;17.67;10.53;;;;;;;3.65;100.00;101844.33;1674503;85;21050;-67
2021/12/12 03:16:35;;;;;;;17.70;10.00;;;;;;;3.66;100.00;101850.27;1674438;85;21113;-68
2021/12/12 03:19:04;;;;;;;20.05;11.20;;;;;;;3.69;100.00;101848.99;1674875;85;21090;-67
2021/12/12 03:21:37;;;;;;;23.35;12.37;;;;;;;3.73;100.00;101846.50;1674421;85;21133;-67
2021/12/12 03:24:09;;;;;;;20.65;11.40;;;;;;;3.77;100.00;101836.75;1674630;84;21058;-66
2021/12/12 03:26:38;;;;;;;20.92;11.90;;;;;;;3.73;100.00;101845.62;1674771;85;21118;-67
2021/12/12 03:29:07;;;;;;;19.92;11.70;;;;;;;3.80;100.00;101855.86;1673870;86;21054;-67
2021/12/12 03:31:42;;;;;;;23.75;11.97;;;;;;;3.78;100.00;101870.28;1674035;86;21070;-66
2021/12/12 03:34:14;;;;;;;19.05;10.82;;;;;;;3.85;100.00;101868.61;1674244;85;21078;-67
2021/12/12 03:36:43;;;;;;;18.12;10.65;;;;;;;3.86;100.00;101870.76;1675776;84;21070;-66
2021/12/12 03:39:21;;;;;;;19.65;10.80;;;;;;;3.83;100.00;101878.37;1674978;85;21087;-66
2021/12/12 03:41:49;;;;;;;19.23;10.82;;;;;;;3.78;100.00;101879.19;1673260;85;21141;-66
2021/12/12 03:44:20;;;;;;;23.38;12.20;;;;;;;3.74;100.00;101869.83;1674811;84;21054;-67
2021/12/12 03:46:52;;;;;;;21.55;10.78;;;;;;;3.73;100.00;101857.95;1673101;84;21102;-67
2021/12/12 03:49:19;;;;;;;20.90;11.40;;;;;;;3.72;100.00;101856.66;1675163;85;21066;-66
2021/12/12 03:51:47;;;;;;;23.73;12.37;;;;;;;3.77;100.00;101856.25;1675527;85;21018;-67
2021/12/12 03:54:16;;;;;;;23.50;12.63;;;;;;;3.68;100.00;101849.42;1673656;84;21081;-67
2021/12/12 03:56:46;;;;;;;23.65;12.88;;;;;;;3.63;100.00;101833.28;1674846;84;21018;-66
2021/12/12 03:59:14;;;;;;;24.15;13.18;;;;;;;3.61;100.00;101829.45;1674255;85;21019;-67
2021/12/12 04:01:46;;;;;;;23.38;12.28;;;;;;;3.39;100.00;101825.91;1674252;85;21096;-67
2021/12/12 04:04:18;;;;;;;25.70;12.18;;;;;;;3.31;100.00;101828.82;1675436;85;21066;-67
2021/12/12 04:06:47;;;;;;;26.17;12.88;;;;;;;3.25;100.00;101820.30;1675092;84;21181;-67
2021/12/12 04:09:15;;;;;;;22.70;12.55;;;;;;;3.22;100.00;101816.02;1674168;85;21070;-68
2021/12/12 04:11:46;;;;;;;25.17;12.58;;;;;;;3.17;100.00;101817.69;1676508;85;21110;-67
2021/12/12 04:14:16;;;;;;;25.15;12.85;;;;;;;3.25;100.00;101821.14;1674439;84;21537;-66
2021/12/12 04:16:48;;;;;;;24.57;13.72;;;;;;;3.28;100.00;101835.14;1674222;85;21011;-67
2021/12/12 04:19:16;;;;;;;27.75;13.15;;;;;;;3.30;100.00;101839.83;1672645;84;21066;-67
2021/12/12 04:21:43;;;;;;;25.80;12.73;;;;;;;3.37;100.00;101839.47;1674696;85;21094;-67
2021/12/12 04:24:11;;;;;;;28.35;12.80;;;;;;;3.33;100.00;101845.38;1674178;84;21140;-67
2021/12/12 04:26:42;;;;;;;24.90;12.63;;;;;;;3.22;100.00;101852.91;1673976;85;21173;-67
2021/12/12 04:29:25;;;;;;;27.15;14.23;;;;;;;3.17;100.00;101849.50;1674626;85;21074;-67
2021/12/12 04:31:56;;;;;;;27.62;13.58;;;;;;;3.16;100.00;101826.14;1670937;84;21551;-67
2021/12/12 04:34:31;;;;;;;25.35;12.23;;;;;;;3.16;100.00;101826.14;1675199;84;21066;-67
2021/12/12 04:37:04;;;;;;;25.95;12.05;;;;;;;3.06;100.00;101832.84;1674895;85;21059;-67
2021/12/12 04:39:38;;;;;;;24.00;11.63;;;;;;;3.03;100.00;101838.36;1676682;85;21070;-67
2021/12/12 04:42:16;;;;;;;23.80;12.05;;;;;;;2.94;100.00;101836.16;1675478;85;21827;-66
2021/12/12 04:44:46;;;;;;;25.15;12.37;;;;;;;2.85;100.00;101830.98;1674689;85;21046;-67
2021/12/12 04:50:46;;;;;;;31.35;13.85;;;;;;;2.76;100.00;101841.09;1674975;85;21074;-67
2021/12/12 04:53:24;;;;;;;24.52;12.43;;;;;;;2.78;100.00;101857.21;1675199;85;21046;-66
2021/12/12 04:56:21;;;;;;;27.65;12.90;;;;;;;2.70;100.00;101867.72;1675052;85;21062;-68
2021/12/12 04:59:36;;;;;;;26.10;12.70;;;;;;;2.58;100.00;101860.39;1675056;85;21070;-67
2021/12/12 05:02:27;;;;;;;27.58;12.47;;;;;;;2.58;100.00;101860.39;1673884;85;21090;-67
2021/12/12 05:05:04;;;;;;;29.87;13.43;;;;;;;2.52;100.00;101878.12;1674420;85;21066;-67
2021/12/12 05:07:46;;;;;;;27.48;12.75;;;;;;;2.56;100.00;101905.28;1674311;85;21027;-67
2021/12/12 05:10:18;;;;;;;29.70;13.72;;;;;;;2.56;100.00;101905.28;1674789;85;21558;-67
2021/12/12 05:12:50;;;;;;;30.32;14.13;;;;;;;2.50;100.00;101896.73;1674438;85;21090;-67
2021/12/12 05:15:22;;;;;;;27.52;13.15;;;;;;;2.56;100.00;101896.38;1673977;85;21090;-67
2021/12/12 05:17:58;;;;;;;28.77;13.43;;;;;;;2.68;100.00;101899.48;1673785;85;21039;-67
2021/12/12 05:20:32;;;;;;;27.02;12.18;;;;;;;2.66;100.00;101896.50;1674749;84;21062;-66
2021/12/12 05:23:03;;;;;;;25.20;12.40;;;;;;;2.64;100.00;101896.47;1674451;85;21034;-67
2021/12/12 05:25:38;;;;;;;25.00;12.40;;;;;;;2.59;100.00;101901.48;1675422;85;21098;-67
2021/12/12 05:28:09;;;;;;;25.97;12.75;;;;;;;2.64;100.00;101905.38;1674364;85;21058;-67
2021/12/12 05:30:37;;;;;;;27.80;14.00;;;;;;;2.72;100.00;101910.55;1675774;84;21110;-67
2021/12/12 05:33:06;;;;;;;26.15;13.22;;;;;;;2.72;100.00;101910.55;1674174;85;21090;-67
2021/12/12 05:35:36;;;;;;;29.48;14.87;;;;;;;2.77;100.00;101903.80;1647005;85;21053;-67
2021/12/12 05:38:04;;;;;;;29.12;14.23;;;;;;;2.76;100.00;101904.66;1673892;86;21530;-67
2021/12/12 05:40:34;;;;;;;27.67;13.78;;;;;;;2.76;100.00;101908.47;1674592;85;21063;-67
2021/12/12 05:43:03;;;;;;;30.48;14.50;;;;;;;2.73;100.00;101890.63;1674946;85;21038;-68
2021/12/12 05:45:33;;;;;;;31.75;14.68;;;;;;;2.77;100.00;101899.98;1675204;85;21116;-67
2021/12/12 05:48:04;;;;;;;30.37;14.05;;;;;;;2.78;100.00;101895.36;1674419;85;21098;-67
2021/12/12 05:50:31;;;;;;;30.65;14.20;;;;;;;2.86;100.00;101901.37;1674142;85;21117;-67
2021/12/12 05:52:58;;;;;;;29.63;14.70;;;;;;;2.86;100.00;101892.47;1674106;84;21023;-67
2021/12/12 05:55:32;;;;;;;28.95;14.63;;;;;;;2.86;100.00;101892.47;1674119;85;21649;-67
2021/12/12 05:58:01;;;;;;;32.53;16.50;;;;;;;2.92;100.00;101894.20;1676125;85;21054;-68
2021/12/12 06:00:33;;;;;;;39.03;18.25;;;;;;;3.05;100.00;101895.19;1674956;85;21114;-67
2021/12/12 06:03:01;;;;;;;37.05;18.07;;;;;;;3.02;100.00;101895.98;1674209;85;21078;-67
2021/12/12 06:05:31;;;;;;;36.23;17.48;;;;;;;3.02;100.00;101895.98;1675012;85;21038;-67
2021/12/12 06:07:59;;;;;;;36.40;17.67;;;;;;;2.85;100.00;101895.83;1674848;85;21090;-67
2021/12/12 06:10:27;;;;;;;35.88;17.48;;;;;;;2.86;100.00;101888.66;1675127;85;21106;-67
2021/12/12 06:12:55;;;;;;;38.30;18.55;;;;;;;2.94;100.00;101895.06;1674603;85;21008;-67
2021/12/12 06:15:27;;;;;;;41.83;19.40;;;;;;;2.91;100.00;101902.25;1675638;85;21026;-67
2021/12/12 06:17:55;;;;;;;40.33;19.95;;;;;;;3.01;100.00;101901.50;1675671;85;21074;-67
2021/12/12 06:20:24;;;;;;;38.25;18.52;;;;;;;2.96;100.00;101896.80;1674399;85;21591;-68
2021/12/12 06:22:52;;;;;;;40.05;19.07;;;;;;;2.96;100.00;101896.80;1674829;84;21034;-67
2021/12/12 06:25:20;;;;;;;36.30;16.85;;;;;;;2.99;100.00;101891.73;1674829;85;21086;-67
2021/12/12 06:27:47;;;;;;;36.25;17.62;;;;;;;2.94;100.00;101893.79;1674907;85;21146;-67
2021/12/12 06:30:18;;;;;;;36.00;18.12;;;;;;;2.95;100.00;101895.09;1675267;85;21531;-67
2021/12/12 06:32:48;;;;;;;34.30;16.45;;;;;;;2.97;100.00;101893.41;1675334;85;21586;-67
2021/12/12 06:35:17;;;;;;;30.37;13.83;;;;;;;3.03;100.00;101896.86;1674667;85;21050;-67
2021/12/12 06:37:44;;;;;;;27.02;13.80;;;;;;;2.98;100.00;101902.77;1674829;85;21413;-66
2021/12/12 06:40:16;;;;;;;31.42;14.78;;;;;;;2.82;100.00;101898.36;1674914;84;21579;-67
2021/12/12 06:42:43;;;;;;;33.15;16.32;;;;;;;2.77;100.00;101899.56;1674644;85;21571;-67
2021/12/12 06:45:12;;;;;;;36.73;18.07;;;;;;;2.78;100.00;101902.98;1675798;84;21055;-67
2021/12/12 06:47:42;;;;;;;35.13;18.07;;;;;;;2.82;100.00;101902.17;1674914;85;21149;-67
2021/12/12 06:50:10;;;;;;;37.70;17.77;;;;;;;2.90;100.00;101897.14;1674459;85;21610;-66
2021/12/12 06:52:38;;;;;;;32.35;16.37;;;;;;;2.79;100.00;101894.08;1672830;83;21006;-67
2021/12/12 06:55:09;;;;;;;38.70;16.82;;;;;;;2.84;100.00;101890.33;1678517;84;21049;-67
2021/12/12 06:57:37;;;;;;;38.85;18.67;;;;;;;2.84;100.00;101890.33;1672881;84;21549;-67
2021/12/12 07:00:12;;;;;;;43.08;17.95;;;;;;;2.93;100.00;101899.30;1676469;83;21575;-68
2021/12/12 07:02:42;;;;;;;42.10;19.40;;;;;;;2.86;100.00;101909.39;1673543;84;21199;-67
2021/12/12 07:05:14;;;;;;;39.03;18.17;;;;;;;2.95;100.00;101903.14;1672256;85;20987;-67
2021/12/12 07:07:42;;;;;;;43.08;19.12;;;;;;;2.89;100.00;101898.84;1631527;86;21598;-67
2021/12/12 07:10:11;;;;;;;42.60;19.85;;;;;;;2.89;100.00;101898.84;1631269;86;21093;-67
2021/12/12 07:12:40;;;;;;;44.75;19.62;;;;;;;3.01;100.00;101895.57;1667211;84;21529;-68
2021/12/12 07:15:11;;;;;;;43.13;18.75;;;;;;;2.99;100.00;101909.54;1669777;85;21012;-67
2021/12/12 07:17:40;;;;;;;48.45;20.57;;;;;;;2.93;100.00;101894.64;1671388;85;21547;-67
2021/12/12 07:20:11;;;;;;;47.00;19.52;;;;;;;2.88;100.00;101897.16;1663466;85;21082;-67
2021/12/12 07:22:40;;;;;;;50.75;22.25;;;;;;;2.93;100.00;101895.48;1675776;84;21056;-67
2021/12/12 07:25:09;;;;;;;44.58;20.12;;;;;;;3.13;100.00;101912.64;1669219;83;21040;-67
2021/12/12 07:27:37;;;;;;;41.50;20.43;;;;;;;3.12;100.00;101905.44;1672937;84;21076;-67
2021/12/12 07:30:06;;;;;;;42.03;20.02;;;;;;;3.09;100.00;101918.12;1669531;85;21018;-68
2021/12/12 07:32:39;;;;;;;41.50;20.37;;;;;;;3.11;100.00;101909.23;1634536;85;21157;-67
2021/12/12 07:35:14;;;;;;;44.98;20.92;;;;;;;3.15;100.00;101902.06;1630085;85;21032;-67
2021/12/12 07:37:42;;;;;;;45.67;21.07;;;;;;;3.07;100.00;101903.26;1629010;86;21576;-67
2021/12/12 07:40:11;;;;;;;41.20;20.45;;;;;;;2.99;100.00;101904.87;1675708;84;21533;-67
2021/12/12 07:42:41;;;;;;;43.08;20.88;;;;;;;3.01;100.00;101898.96;1679980;84;21062;-68
2021/12/12 07:45:10;;;;;;;41.90;20.15;;;;;;;3.01;100.00;101898.96;1667999;84;21586;-67
2021/12/12 07:47:37;;;;;;;43.55;20.40;;;;;;;3.09;100.00;101901.58;1669777;84;21483;-67
2021/12/12 07:50:09;;;;;;;43.17;19.65;;;;;;;3.13;100.00;101905.86;1624352;86;21504;-66
2021/12/12 07:52:38;;;;;;;48.83;20.48;;;;;;;3.23;100.00;101897.05;1628472;87;21052;-67
2021/12/12 07:55:06;;;;;;;44.08;19.45;;;;;;;3.27;100.00;101909.80;1668245;84;21066;-67
2021/12/12 07:57:34;;;;;;;43.48;19.00;;;;;;;3.18;100.00;101912.25;1630288;86;21593;-67
2021/12/12 08:00:04;;;;;;;42.23;19.45;;;;;;;3.14;100.00;101901.22;1673537;84;21036;-67
2021/12/12 08:02:34;;;;;;;41.28;18.77;;;;;;;3.18;100.00;101902.95;1673239;84;21069;-67
2021/12/12 08:05:03;;;;;;;41.70;20.37;;;;;;;3.16;100.00;101897.39;1667858;85;21097;-67
2021/12/12 08:07:33;;;;;;;45.92;20.08;;;;;;;3.29;100.00;101895.40;1666447;85;21495;-67
2021/12/12 08:10:04;;;;;;;42.00;19.40;;;;;;;3.37;100.00;101876.38;1626167;86;21075;-67
2021/12/12 08:12:33;;;;;;;50.30;21.60;;;;;;;3.25;100.00;101882.64;1679387;83;21068;-67
2021/12/12 08:15:07;;;;;;;43.73;19.87;;;;;;;3.29;100.00;101885.65;1678564;83;21108;-67
2021/12/12 08:17:36;;;;;;;46.40;20.30;;;;;;;3.22;100.00;101873.27;1676134;84;21028;-67
2021/12/12 08:20:06;;;;;;;38.35;18.42;;;;;;;3.18;100.00;101872.41;1670249;84;20981;-67
2021/12/12 08:22:34;;;;;;;41.50;18.82;;;;;;;3.21;100.00;101883.88;1674853;84;22501;-68
2021/12/12 08:25:05;;;;;;;37.88;18.65;;;;;;;3.25;100.00;101882.64;1633281;86;21575;-67
2021/12/12 08:27:34;;;;;;;39.95;18.60;;;;;;;3.05;100.00;101883.31;1635284;85;21077;-67
2021/12/12 08:30:03;;;;;;;41.68;20.62;;;;;;;3.12;100.00;101878.73;1675361;84;21076;-67
2021/12/12 08:32:32;;;;;;;44.53;19.90;;;;;;;3.13;100.00;101881.69;1671033;84;21034;-67
2021/12/12 08:34:59;;;;;;;44.45;20.48;;;;;;;3.17;100.00;101874.94;1670014;84;21023;-67
2021/12/12 08:37:29;;;;;;;46.23;20.68;;;;;;;3.18;100.00;101869.88;1629562;87;21043;-67
2021/12/12 08:39:56;;;;;;;45.10;20.90;;;;;;;3.18;100.00;101863.91;1669721;84;21540;-67
2021/12/12 08:42:26;;;;;;;46.53;22.05;;;;;;;3.31;100.00;101867.42;1680930;83;21112;-67
2021/12/12 08:44:56;;;;;;;44.75;21.23;;;;;;;3.36;100.00;101864.05;1677318;83;21556;-67
2021/12/12 08:47:24;;;;;;;49.05;20.08;;;;;;;3.37;100.00;101863.22;1669784;84;21028;-67
2021/12/12 08:49:51;;;;;;;45.12;21.15;;;;;;;3.30;100.00;101859.34;1677363;84;21029;-67
2021/12/12 08:52:29;;;;;;;40.55;19.32;;;;;;;3.43;100.00;101845.88;1673233;83;21024;-67
2021/12/12 08:54:56;;;;;;;43.10;20.02;;;;;;;3.47;100.00;101830.18;1665235;84;21044;-67
2021/12/12 08:57:34;;;;;;;43.68;20.88;;;;;;;3.47;100.00;101830.18;1666335;85;21626;-67
2021/12/12 09:00:06;;;;;;;43.30;19.02;;;;;;;3.53;100.00;101831.09;1671783;85;21019;-67
2021/12/12 09:02:34;;;;;;;41.33;19.10;;;;;;;3.56;100.00;101822.19;1668902;85;21102;-67
2021/12/12 09:05:07;;;;;;;44.65;20.72;;;;;;;3.57;100.00;101819.24;1674271;84;21083;-66
2021/12/12 09:07:38;;;;;;;47.10;20.85;;;;;;;3.59;100.00;101815.02;1671311;83;21064;-67
2021/12/12 09:10:28;;;;;;;43.23;21.20;;;;;;;3.72;100.00;101824.41;1677850;84;21013;-67
2021/12/12 09:13:02;;;;;;;45.95;20.95;;;;;;;3.79;100.00;101821.45;1682770;84;21060;-67
2021/12/12 09:15:43;;;;;;;42.20;20.12;;;;;;;3.67;100.00;101811.20;1671893;84;21045;-67
2021/12/12 09:18:33;;;;;;;44.67;21.07;;;;;;;3.63;100.00;101818.00;1687251;82;21050;-67
2021/12/12 09:21:10;;;;;;;50.25;22.95;;;;;;;3.48;100.00;101811.53;1687270;83;21039;-68
2021/12/12 09:23:49;;;;;;;53.38;25.05;;;;;;;3.47;100.00;101809.41;1629614;87;21058;-67
2021/12/12 09:26:21;;;;;;;50.63;23.42;;;;;;;3.41;100.00;101806.41;1686776;84;21433;-68
2021/12/12 09:29:03;;;;;;;55.28;24.18;;;;;;;3.36;100.00;101809.75;1657491;85;21117;-68
2021/12/12 09:31:38;;;;;;;50.30;23.30;;;;;;;3.38;100.00;101814.00;1662262;84;21079;-68
2021/12/12 09:34:21;;;;;;;53.02;23.60;;;;;;;3.35;100.00;101808.91;1684532;84;21507;-68
2021/12/12 09:36:59;;;;;;;54.30;24.57;;;;;;;3.32;100.00;101795.30;1688216;84;21122;-68
2021/12/12 09:39:44;;;;;;;50.83;22.87;;;;;;;3.41;100.00;101808.11;1683320;84;21539;-68
2021/12/12 09:42:26;;;;;;;;;;;;;;;3.37;100.00;101795.77;1684910;84;21021;-67
2021/12/12 09:45:04;;;;;;;51.37;22.98;;;;;;;3.50;100.00;101802.21;1687162;84;20151;-68
2021/12/12 09:51:14;;;;;;;54.75;24.80;;;;;;;3.56;100.00;101797.16;1670236;84;21061;-67
2021/12/12 09:51:16;;;;;;;50.50;24.00;;;;;;;3.57;100.00;101792.51;1685780;84;21021;-66
2021/12/12 09:54:18;;;;;;;48.68;23.22;;;;;;;3.41;100.00;101783.92;1688275;84;21057;-67
2021/12/12 09:57:06;;;;;;;58.83;25.77;;;;;;;3.36;100.00;101780.05;1690479;84;21108;-67
2021/12/12 10:00:02;;;;;;;56.02;23.70;;;;;;;3.37;100.00;101784.32;1697032;84;21119;-67
2021/12/12 10:02:52;;;;;;;59.60;23.60;;;;;;;3.27;100.00;101781.29;1692055;84;21592;-67
2021/12/12 10:06:00;;;;;;;57.03;25.30;;;;;;;3.34;100.00;101770.72;1617074;85;21063;-67
2021/12/12 10:09:03;;;;;;;60.03;25.88;;;;;;;3.36;100.00;101774.12;1601867;88;21122;-67
2021/12/12 10:12:07;;;;;;;58.65;26.27;;;;;;;3.43;100.00;101784.78;1600870;89;21580;-66
2021/12/12 10:15:00;;;;;;;50.83;23.02;;;;;;;3.53;100.00;101794.17;1661068;85;21090;-67
2021/12/12 10:17:51;;;;;;;53.35;23.65;;;;;;;3.46;100.00;101788.61;1673623;85;21630;-67
2021/12/12 10:20:35;;;;;;;55.33;24.65;;;;;;;3.39;100.00;101786.45;1669633;85;21034;-67
2021/12/12 10:23:33;;;;;;;48.42;22.90;;;;;;;3.28;100.00;101784.67;1671931;85;21626;-67
2021/12/12 10:26:35;;;;;;;49.63;22.67;;;;;;;3.20;100.00;101790.58;1670779;84;21046;-67
2021/12/12 10:29:17;;;;;;;56.95;25.40;;;;;;;3.25;100.00;101796.97;1641949;87;21066;-67
2021/12/12 10:31:51;;;;;;;68.00;28.30;;;;;;;3.27;100.00;101793.17;1618784;87;21082;-66
2021/12/12 10:34:36;;;;;;;56.80;25.62;;;;;;;3.34;100.00;101798.28;1656167;85;21133;-67
2021/12/12 10:37:30;;;;;;;69.05;28.60;;;;;;;3.40;100.00;101795.78;1667624;84;21106;-66
2021/12/12 10:40:08;;;;;;;65.17;27.57;;;;;;;3.46;100.00;101793.70;1666832;84;21606;-67
2021/12/12 10:42:43;;;;;;;62.03;25.00;;;;;;;3.50;100.00;101802.21;1669373;84;21744;-67
2021/12/12 10:45:18;;;;;;;55.52;24.15;;;;;;;3.56;100.00;101799.27;1672186;84;21011;-67
2021/12/12 10:48:06;;;;;;;58.17;25.52;;;;;;;3.36;100.00;101797.03;1669093;85;21059;-67
2021/12/12 10:51:03;;;;;;;58.23;25.02;;;;;;;3.37;100.00;101794.93;1669756;84;21098;-67
2021/12/12 10:53:41;;;;;;;54.35;25.40;;;;;;;3.39;100.00;101792.81;1668441;84;21563;-66
2021/12/12 10:56:24;;;;;;;65.22;28.25;;;;;;;3.45;100.00;101798.38;1662094;85;21039;-67
2021/12/12 10:58:59;;;;;;;61.20;28.07;;;;;;;3.47;100.00;101797.96;1663299;84;21116;-66
2021/12/12 11:01:37;;;;;;;61.18;27.27;;;;;;;3.61;100.00;101803.14;1660467;85;21611;-67
2021/12/12 11:04:23;;;;;;;56.70;28.20;;;;;;;3.74;100.00;101802.77;1665884;84;21047;-68
2021/12/12 11:07:01;;;;;;;57.58;25.90;;;;;;;3.63;100.00;101790.39;1648799;86;21060;-67
2021/12/12 11:09:40;;;;;;;56.77;26.30;;;;;;;3.52;100.00;101781.00;1664588;85;21050;-68
2021/12/12 11:12:12;;;;;;;54.60;25.88;;;;;;;3.51;100.00;101777.20;1672854;84;21152;-68
2021/12/12 11:15:07;;;;;;;57.83;25.97;;;;;;;3.45;100.00;101773.31;1672202;84;21027;-68
2021/12/12 11:17:43;;;;;;;;;;;;;;;3.41;100.00;101780.95;1686766;84;21031;-69
2021/12/12 11:20:24;;;;;;;52.62;24.23;;;;;;;3.39;100.00;101776.27;1682997;84;20404;-68
2021/12/12 11:22:59;;;;;;;49.08;24.25;;;;;;;3.47;100.00;101776.72;1679382;84;21023;-68
2021/12/12 11:25:34;;;;;;;53.45;24.10;;;;;;;3.49;100.00;101775.03;1684508;84;21594;-67
2021/12/12 11:28:15;;;;;;;54.70;25.43;;;;;;;3.45;100.00;101764.01;1689212;84;21073;-68
2021/12/12 11:30:51;;;;;;;50.95;24.65;;;;;;;3.48;100.00;101757.64;1688536;84;21061;-67
2021/12/12 11:33:20;;;;;;;52.27;24.63;;;;;;;3.39;100.00;101741.91;1699438;84;21588;-68
2021/12/12 11:35:51;;;;;;;55.15;26.07;;;;;;;3.45;100.00;101750.01;1702092;84;21032;-68
2021/12/12 11:38:32;;;;;;;53.73;26.65;;;;;;;3.43;100.00;101756.78;1694205;83;21060;-68
2021/12/12 11:41:17;;;;;;;56.13;25.97;;;;;;;3.47;100.00;101748.72;1681383;83;21028;-68
2021/12/12 11:44:07;;;;;;;61.20;28.07;;;;;;;3.53;100.00;101745.81;1695472;84;21060;-66
2021/12/12 11:46:55;;;;;;;49.98;22.55;;;;;;;3.54;100.00;101744.95;1673892;84;21135;-67
2021/12/12 11:49:30;;;;;;;52.17;23.87;;;;;;;3.52;100.00;101744.09;1681919;83;21196;-67
2021/12/12 11:52:06;;;;;;;55.65;24.90;;;;;;;3.52;100.00;101758.09;1690340;83;21561;-67
2021/12/12 11:54:50;;;;;;;53.13;24.40;;;;;;;3.51;100.00;101755.13;1690866;83;21067;-67